Time;durP1;ratioP1;P1;durP2;ratioP2;P2;SDS_P1;SDS_P2;PMS_P1;PMS_P2;Temp;Humidity;BMP_temperature;BMP_pressure;BME280_temperature;BME280_humidity;BME280_pressure;Samples;Min_cycle;Max_cycle;Signal;HPM_P1;HPM_P2
2021/08/19 00:01:36;;;;;;;0.40;0.10;;;;;;;18.35;55.93;99908.67;126272;1096;102913;-86
2021/08/19 00:04:04;;;;;;;0.40;0.10;;;;;;;18.38;56.22;99899.52;126153;1095;114506;-86
2021/08/19 00:06:31;;;;;;;0.40;0.10;;;;;;;18.40;55.92;99902.95;126257;1096;102913;-86
2021/08/19 00:08:59;;;;;;;0.40;0.00;;;;;;;18.42;56.11;99898.34;126327;1096;102890;-86
2021/08/19 00:11:26;;;;;;;0.40;0.10;;;;;;;18.38;56.19;99908.45;126121;1095;114317;-85
2021/08/19 00:13:53;;;;;;;0.40;0.10;;;;;;;18.33;56.47;99899.81;126279;1096;102905;-86
2021/08/19 00:16:20;;;;;;;0.40;0.10;;;;;;;18.34;56.72;99904.23;126125;1096;113762;-85
2021/08/19 00:18:48;;;;;;;0.40;0.10;;;;;;;18.35;56.87;99913.18;126322;1096;103001;-86
2021/08/19 00:21:15;;;;;;;0.40;0.10;;;;;;;18.40;56.69;99911.05;126368;1096;103456;-86
2021/08/19 00:23:42;;;;;;;0.40;0.00;;;;;;;18.49;56.81;99912.27;126149;1096;114167;-86
2021/08/19 00:26:09;;;;;;;0.40;0.10;;;;;;;18.54;56.90;99907.44;126234;1096;103051;-86
2021/08/19 00:28:36;;;;;;;0.40;0.00;;;;;;;18.49;56.94;99902.34;126182;1096;113067;-85
2021/08/19 00:31:04;;;;;;;0.40;0.10;;;;;;;18.47;57.04;99903.41;126324;1096;102934;-85
2021/08/19 00:33:31;;;;;;;0.40;0.10;;;;;;;18.53;57.44;99900.31;126186;1096;103440;-84
2021/08/19 00:35:58;;;;;;;0.40;0.07;;;;;;;18.53;56.79;99901.16;126055;1096;114319;-85
2021/08/19 00:38:25;;;;;;;0.40;0.10;;;;;;;18.58;57.22;99903.56;126157;1096;102887;-85
2021/08/19 00:40:56;;;;;;;0.40;0.10;;;;;;;18.67;57.05;99904.75;126117;1096;114022;-85
2021/08/19 00:43:23;;;;;;;0.40;0.10;;;;;;;18.72;57.19;99903.46;126140;1096;102989;-86
2021/08/19 00:45:50;;;;;;;0.40;0.10;;;;;;;18.64;57.12;99913.91;126168;1096;102911;-85
2021/08/19 00:48:17;;;;;;;0.40;0.10;;;;;;;18.59;57.17;99904.41;126040;1095;114155;-86
2021/08/19 00:50:45;;;;;;;0.40;0.10;;;;;;;18.63;57.60;99904.09;126195;1095;101367;-86
2021/08/19 00:53:13;;;;;;;0.40;0.10;;;;;;;18.58;57.28;99905.38;126117;1095;114815;-86
2021/08/19 00:55:41;;;;;;;0.40;0.10;;;;;;;18.47;57.55;99896.20;126248;1096;103035;-87
2021/08/19 00:58:08;;;;;;;0.40;0.00;;;;;;;18.38;57.81;99905.76;126103;1097;114148;-84
2021/08/19 01:00:35;;;;;;;0.40;0.10;;;;;;;18.40;57.85;99907.50;126297;1095;102894;-85
2021/08/19 01:03:06;;;;;;;0.40;0.00;;;;;;;18.41;57.72;99898.41;126186;1096;102888;-86
2021/08/19 01:05:38;;;;;;;0.40;0.00;;;;;;;18.40;57.94;99897.56;126058;1096;114344;-85
2021/08/19 01:08:05;;;;;;;0.40;0.00;;;;;;;18.49;57.77;99905.03;126202;1096;103065;-86
2021/08/19 01:10:35;;;;;;;0.40;0.10;;;;;;;18.47;57.52;99904.29;126245;1096;114340;-86
2021/08/19 01:13:05;;;;;;;0.40;0.10;;;;;;;18.45;57.71;99908.91;126188;1096;102921;-84
2021/08/19 01:15:32;;;;;;;0.40;0.10;;;;;;;18.45;57.80;99906.22;126318;1095;102895;-85
2021/08/19 01:18:01;;;;;;;0.40;0.10;;;;;;;18.49;58.03;99906.88;126203;1096;114135;-85
2021/08/19 01:20:30;;;;;;;0.40;0.10;;;;;;;18.53;57.78;99908.40;126286;1096;103002;-85
2021/08/19 01:22:58;;;;;;;0.40;0.10;;;;;;;18.54;57.87;99904.74;126107;1096;114406;-85
2021/08/19 01:25:27;;;;;;;0.40;0.10;;;;;;;18.51;57.96;99899.53;126256;1096;102885;-86
2021/08/19 01:27:55;;;;;;;0.40;0.10;;;;;;;18.45;58.28;99903.52;126255;1096;114538;-85
2021/08/19 01:30:25;;;;;;;0.40;0.10;;;;;;;18.48;58.27;99900.60;126213;1096;103100;-85
2021/08/19 01:32:53;;;;;;;0.40;0.10;;;;;;;18.50;58.35;99901.38;126378;1095;102908;-85
2021/08/19 01:35:22;;;;;;;0.40;0.00;;;;;;;18.52;58.44;99901.27;126196;1096;113879;-86
2021/08/19 01:37:50;;;;;;;0.40;0.00;;;;;;;18.59;58.08;99907.11;126230;1096;102924;-86
2021/08/19 01:40:17;;;;;;;0.40;0.10;;;;;;;18.58;58.39;99903.56;126189;1096;114659;-87
2021/08/19 01:42:46;;;;;;;0.40;0.10;;;;;;;18.49;58.32;99907.73;126192;1095;102959;-86
2021/08/19 01:45:18;;;;;;;0.40;0.10;;;;;;;18.46;58.58;99904.37;126310;1096;103039;-86
2021/08/19 01:47:47;;;;;;;0.40;0.10;;;;;;;18.50;58.50;99897.80;126123;1096;114341;-85
2021/08/19 01:50:14;;;;;;;0.40;0.10;;;;;;;18.40;58.78;99902.11;126219;1096;103022;-86
2021/08/19 01:52:43;;;;;;;0.40;0.10;;;;;;;18.38;58.87;99903.06;126051;1096;113461;-86
2021/08/19 01:55:12;;;;;;;0.40;0.10;;;;;;;18.34;59.30;99900.66;126176;1096;103145;-86
2021/08/19 01:57:40;;;;;;;0.40;0.10;;;;;;;18.42;59.27;99900.15;126254;1096;102911;-86
2021/08/19 02:00:07;;;;;;;0.40;0.10;;;;;;;18.48;59.16;99900.60;126152;1096;114219;-86
2021/08/19 02:02:35;;;;;;;0.40;0.10;;;;;;;18.48;58.84;99900.60;126234;1095;102364;-85
2021/08/19 02:05:03;;;;;;;0.40;0.10;;;;;;;18.45;58.83;99906.22;126181;1096;114308;-85
2021/08/19 02:07:30;;;;;;;0.40;0.10;;;;;;;18.38;59.01;99905.76;126276;1095;102968;-85
2021/08/19 02:09:57;;;;;;;0.40;0.10;;;;;;;18.41;59.37;99907.39;126154;1096;113679;-86
2021/08/19 02:12:24;;;;;;;0.40;0.10;;;;;;;18.43;59.05;99912.67;126249;1096;102919;-85
2021/08/19 02:14:55;;;;;;;0.40;0.10;;;;;;;18.40;59.12;99908.34;126195;1096;102903;-86
2021/08/19 02:17:23;;;;;;;0.40;0.10;;;;;;;18.35;59.19;99913.18;126147;1096;114531;-85
2021/08/19 02:19:50;;;;;;;0.40;0.10;;;;;;;18.32;59.92;99906.16;126246;1095;102916;-85
2021/08/19 02:22:17;;;;;;;0.40;0.10;;;;;;;18.33;59.42;99907.89;126128;1096;114535;-85
2021/08/19 02:24:44;;;;;;;0.40;0.10;;;;;;;18.31;59.54;99907.15;126238;1096;102900;-85
2021/08/19 02:27:11;;;;;;;0.40;0.10;;;;;;;18.31;60.07;99914.35;126168;1095;103067;-85
2021/08/19 02:29:38;;;;;;;0.40;0.10;;;;;;;18.28;60.10;99917.27;126075;1096;114154;-87
2021/08/19 02:32:06;;;;;;;0.40;0.10;;;;;;;18.30;59.89;99912.61;126254;1096;105227;-86
2021/08/19 02:34:33;;;;;;;0.40;0.10;;;;;;;18.36;59.72;99914.91;126171;1096;114465;-85
2021/08/19 02:37:01;;;;;;;0.40;0.10;;;;;;;18.35;59.67;99913.18;126362;1096;103063;-86
2021/08/19 02:39:29;;;;;;;0.40;0.10;;;;;;;18.30;60.21;99904.53;126295;1096;102882;-85
2021/08/19 02:41:56;;;;;;;0.40;0.10;;;;;;;18.26;60.43;99911.09;126097;1096;114136;-85
2021/08/19 02:44:23;;;;;;;0.40;0.10;;;;;;;18.09;60.75;99907.69;126188;1096;103039;-85
2021/08/19 02:46:51;;;;;;;0.40;0.10;;;;;;;18.03;60.81;99908.97;126075;1096;114505;-85
2021/08/19 02:49:18;;;;;;;0.40;0.10;;;;;;;18.12;60.59;99912.88;126262;1096;103211;-86
2021/08/19 02:51:45;;;;;;;0.40;0.10;;;;;;;18.06;60.78;99915.98;126165;1096;102929;-85
2021/08/19 02:54:13;;;;;;;0.40;0.10;;;;;;;17.96;61.04;99909.46;126147;1096;113854;-86
2021/08/19 02:56:41;;;;;;;0.40;0.10;;;;;;;17.97;61.01;99916.59;126210;1096;102915;-86
2021/08/19 02:59:08;;;;;;;0.40;0.10;;;;;;;18.01;61.01;99920.81;126124;1095;114237;-86
2021/08/19 03:01:37;;;;;;;0.40;0.10;;;;;;;18.03;60.99;99913.47;126282;1096;102926;-85
2021/08/19 03:04:04;;;;;;;0.40;0.10;;;;;;;18.00;61.15;99919.08;126100;1096;114465;-86
2021/08/19 03:06:31;;;;;;;0.40;0.10;;;;;;;17.95;61.06;99915.81;126266;1096;103002;-87
2021/08/19 03:09:00;;;;;;;0.40;0.10;;;;;;;17.97;61.09;99917.44;126182;1096;102890;-86
2021/08/19 03:11:28;;;;;;;0.40;0.10;;;;;;;17.99;61.03;99920.03;126113;1096;114295;-86
2021/08/19 03:13:56;;;;;;;0.40;0.10;;;;;;;18.06;60.84;99921.38;126277;1096;102915;-86
2021/08/19 03:16:24;;;;;;;0.40;0.10;;;;;;;17.88;61.11;99920.70;126081;1096;115196;-85
2021/08/19 03:18:51;;;;;;;0.40;0.10;;;;;;;17.83;61.22;99918.31;126286;1095;102919;-86
2021/08/19 03:21:20;;;;;;;0.40;0.10;;;;;;;17.78;61.71;99914.16;126267;1095;103042;-86
2021/08/19 03:23:48;;;;;;;0.40;0.10;;;;;;;17.74;61.44;99916.21;126094;1096;114400;-86
2021/08/19 03:26:16;;;;;;;0.40;0.10;;;;;;;17.70;61.79;99923.61;126298;1096;102148;-86
2021/08/19 03:28:43;;;;;;;0.40;0.10;;;;;;;17.67;62.21;99914.85;126168;1096;113374;-86
2021/08/19 03:31:11;;;;;;;0.40;0.10;;;;;;;17.64;61.81;99929.38;126289;1095;103031;-85
2021/08/19 03:33:38;;;;;;;0.40;0.10;;;;;;;17.69;62.04;99921.88;126224;1096;103068;-85
2021/08/19 03:36:06;;;;;;;0.40;0.10;;;;;;;17.65;61.72;99923.03;126052;1096;114314;-85
2021/08/19 03:38:43;;;;;;;0.40;0.10;;;;;;;17.64;62.24;99917.75;126157;1096;103008;-86
2021/08/19 03:41:11;;;;;;;0.40;0.10;;;;;;;17.68;61.92;99914.75;126181;1095;114447;-86
2021/08/19 03:43:39;;;;;;;0.40;0.10;;;;;;;17.62;62.14;99917.86;126194;1096;102884;-85
2021/08/19 03:46:06;;;;;;;0.40;0.10;;;;;;;17.63;62.02;99916.02;126117;1096;114342;-86
2021/08/19 03:48:33;;;;;;;0.40;0.10;;;;;;;17.62;61.81;99920.55;126232;1096;103085;-86
2021/08/19 03:51:01;;;;;;;0.40;0.10;;;;;;;17.59;62.20;99922.56;126193;1096;102888;-85
2021/08/19 03:53:28;;;;;;;0.40;0.10;;;;;;;17.61;61.98;99912.57;126139;1096;114359;-86
2021/08/19 03:55:56;;;;;;;0.40;0.10;;;;;;;17.66;62.14;99905.92;126362;1096;102886;-85
2021/08/19 03:58:26;;;;;;;0.40;0.10;;;;;;;17.70;61.89;99907.45;126118;1096;114288;-86
2021/08/19 04:00:53;;;;;;;0.40;0.10;;;;;;;17.70;62.00;99903.88;126236;1097;102903;-85
2021/08/19 04:03:21;;;;;;;0.40;0.10;;;;;;;17.69;61.94;99908.41;126250;1096;103036;-85
2021/08/19 04:05:49;;;;;;;0.40;0.10;;;;;;;17.77;62.08;99915.16;126212;1096;114237;-86
2021/08/19 04:08:16;;;;;;;0.40;0.10;;;;;;;17.72;61.77;99908.20;126209;1096;102892;-85
2021/08/19 04:10:44;;;;;;;0.40;0.10;;;;;;;17.67;62.05;99914.85;126071;1096;114330;-85
2021/08/19 04:13:14;;;;;;;0.40;0.10;;;;;;;17.61;62.26;99915.27;126167;1096;102949;-85
2021/08/19 04:15:47;;;;;;;0.40;0.10;;;;;;;17.61;62.36;99915.27;126241;1096;103065;-85
2021/08/19 04:18:16;;;;;;;0.40;0.10;;;;;;;17.59;62.24;99914.48;126056;1095;114113;-86
2021/08/19 04:20:43;;;;;;;0.40;0.10;;;;;;;17.57;62.55;99903.81;126257;1096;102913;-86
2021/08/19 04:23:11;;;;;;;0.40;0.10;;;;;;;17.55;62.73;99913.80;126137;1096;114254;-86
2021/08/19 04:25:38;;;;;;;0.40;0.10;;;;;;;17.51;62.66;99915.84;126220;1096;101733;-85
2021/08/19 04:28:05;;;;;;;0.40;0.10;;;;;;;17.54;62.64;99902.18;126084;1095;113620;-86
2021/08/19 04:30:32;;;;;;;0.40;0.10;;;;;;;17.55;63.26;99916.49;126170;1095;103142;-86
2021/08/19 04:33:00;;;;;;;0.40;0.10;;;;;;;17.55;63.44;99903.03;126162;1096;103379;-87
2021/08/19 04:35:31;;;;;;;0.40;0.10;;;;;;;17.58;63.15;99904.66;126101;1095;114340;-86
2021/08/19 04:37:59;;;;;;;0.40;0.10;;;;;;;17.57;63.21;99887.66;126218;1096;102983;-86
2021/08/19 04:40:27;;;;;;;0.40;0.10;;;;;;;17.57;63.24;99890.35;126008;1094;114559;-85
2021/08/19 04:42:54;;;;;;;0.40;0.10;;;;;;;17.65;63.14;99892.56;126185;1096;102903;-87
2021/08/19 04:45:21;;;;;;;0.40;0.10;;;;;;;17.65;63.45;99890.72;126227;1096;102927;-86
2021/08/19 04:47:48;;;;;;;0.40;0.10;;;;;;;17.67;63.07;99894.20;126015;1095;115676;-87
2021/08/19 04:50:18;;;;;;;0.40;0.10;;;;;;;17.69;63.06;99891.40;126267;1095;105222;-86
2021/08/19 04:52:46;;;;;;;0.40;0.10;;;;;;;17.82;63.08;99896.84;126084;1096;114214;-86
2021/08/19 04:55:13;;;;;;;0.40;0.05;;;;;;;17.81;62.95;99900.52;126262;1096;103004;-86
2021/08/19 04:57:41;;;;;;;0.40;0.10;;;;;;;17.82;63.06;99908.50;126257;1097;102979;-86
2021/08/19 05:00:10;;;;;;;0.40;0.10;;;;;;;17.84;62.74;99901.16;125985;1095;114547;-86
2021/08/19 05:02:37;;;;;;;0.40;0.10;;;;;;;17.94;62.64;99914.95;126154;1096;103183;-86
2021/08/19 05:05:05;;;;;;;0.40;0.10;;;;;;;17.97;62.45;99916.59;125957;1096;113941;-87
2021/08/19 05:07:33;;;;;;;0.40;0.10;;;;;;;17.97;62.37;99920.13;126182;1096;102908;-86
2021/08/19 05:10:02;;;;;;;0.40;0.10;;;;;;;17.95;62.72;99918.50;126018;1097;114537;-85
2021/08/19 05:12:32;;;;;;;0.40;0.10;;;;;;;17.99;62.45;99907.44;126113;1096;102980;-86
2021/08/19 05:14:59;;;;;;;0.40;0.10;;;;;;;18.02;62.63;99904.53;126131;1096;103043;-86
2021/08/19 05:17:28;;;;;;;0.40;0.10;;;;;;;18.10;62.57;99895.95;126044;1096;114255;-86
2021/08/19 05:19:57;;;;;;;0.40;0.10;;;;;;;18.17;62.28;99904.50;126128;1096;103013;-84
2021/08/19 05:22:25;;;;;;;0.40;0.10;;;;;;;18.18;62.58;99899.00;125968;1096;114425;-87
2021/08/19 05:24:52;;;;;;;0.40;0.10;;;;;;;18.20;61.92;99896.20;126104;1096;102997;-87
2021/08/19 05:27:20;;;;;;;0.40;0.10;;;;;;;18.30;61.95;99912.61;126056;1095;102888;-88
2021/08/19 05:29:48;;;;;;;0.40;0.10;;;;;;;18.41;62.02;99912.78;126037;1095;114296;-85
2021/08/19 05:32:15;;;;;;;0.40;0.00;;;;;;;18.41;61.48;99917.29;126127;1096;103034;-88
2021/08/19 05:34:43;;;;;;;0.40;0.10;;;;;;;18.41;61.67;99917.29;126054;1096;114316;-88
2021/08/19 05:37:10;;;;;;;0.40;0.10;;;;;;;18.52;61.68;99912.05;126156;1096;103008;-88
2021/08/19 05:39:37;;;;;;;0.40;0.10;;;;;;;18.65;61.20;99915.65;126160;1096;102956;-85
2021/08/19 05:42:04;;;;;;;0.40;0.10;;;;;;;18.72;60.94;99908.86;126051;1096;114199;-85
2021/08/19 05:44:32;;;;;;;0.40;0.10;;;;;;;18.84;60.58;99911.70;126111;1096;103040;-83
2021/08/19 05:47:00;;;;;;;0.40;0.10;;;;;;;18.86;60.28;99915.17;126015;1096;114394;-84
2021/08/19 05:49:27;;;;;;;0.40;0.10;;;;;;;18.86;60.98;99916.02;126142;1095;102897;-86
2021/08/19 05:51:54;;;;;;;0.40;0.10;;;;;;;18.95;59.99;99914.53;126105;1096;103031;-86
2021/08/19 05:54:24;;;;;;;0.40;0.10;;;;;;;18.99;59.76;99915.20;125984;1095;113337;-87
2021/08/19 05:56:51;;;;;;;0.40;0.00;;;;;;;19.08;59.81;99911.01;126146;1097;103033;-87
2021/08/19 05:59:18;;;;;;;0.40;0.10;;;;;;;19.12;59.78;99916.06;126092;1096;115282;-86
2021/08/19 06:01:45;;;;;;;0.40;0.10;;;;;;;19.18;60.00;99909.37;126080;1096;102990;-85
2021/08/19 06:04:13;;;;;;;0.40;0.10;;;;;;;19.21;59.58;99911.88;126054;1095;114209;-86
2021/08/19 06:06:41;;;;;;;0.40;0.10;;;;;;;19.19;60.46;99914.69;126102;1096;103712;-86
2021/08/19 06:09:08;;;;;;;0.40;0.10;;;;;;;19.23;59.55;99909.91;126132;1096;102966;-86
2021/08/19 06:11:36;;;;;;;0.40;0.10;;;;;;;19.31;60.01;99904.86;125936;1097;114109;-86
2021/08/19 06:14:05;;;;;;;0.40;0.10;;;;;;;19.46;59.96;99905.59;126057;1096;103060;-86
2021/08/19 06:16:36;;;;;;;0.40;0.10;;;;;;;19.57;59.34;99899.42;125980;1095;114741;-86
2021/08/19 06:19:03;;;;;;;0.40;0.00;;;;;;;19.60;58.79;99901.89;126129;1096;102983;-87
2021/08/19 06:21:31;;;;;;;0.40;0.10;;;;;;;19.65;59.27;99901.58;126051;1096;102907;-86
2021/08/19 06:23:58;;;;;;;0.40;0.10;;;;;;;19.76;58.03;99903.50;125982;1095;112916;-86
2021/08/19 06:26:26;;;;;;;0.40;0.10;;;;;;;19.77;58.14;99897.13;126141;1096;103582;-86
2021/08/19 06:28:56;;;;;;;0.40;0.00;;;;;;;19.83;58.26;99892.16;126033;1096;114189;-86
2021/08/19 06:31:24;;;;;;;0.40;0.00;;;;;;;19.87;58.34;99888.26;126034;1095;103030;-85
2021/08/19 06:33:51;;;;;;;0.40;0.10;;;;;;;19.98;58.71;99898.27;126191;1095;102956;-85
2021/08/19 06:36:18;;;;;;;0.40;0.10;;;;;;;20.16;57.88;99903.28;125971;1096;113323;-85
2021/08/19 06:38:53;;;;;;;0.40;0.10;;;;;;;20.20;57.03;99893.97;126012;1095;103180;-86
2021/08/19 06:41:24;;;;;;;0.40;0.00;;;;;;;20.37;57.63;99896.26;125947;1096;114138;-87
2021/08/19 06:43:52;;;;;;;0.40;0.00;;;;;;;20.48;56.92;99898.15;126006;1095;103163;-86
2021/08/19 06:46:19;;;;;;;0.40;0.00;;;;;;;20.50;56.04;99903.44;126008;1096;113884;-87
2021/08/19 06:48:47;;;;;;;0.40;0.00;;;;;;;20.45;55.68;99902.95;126058;1097;102881;-86
2021/08/19 06:51:14;;;;;;;0.40;0.00;;;;;;;20.40;56.32;99900.58;126036;1096;103023;-87
2021/08/19 06:53:41;;;;;;;0.40;0.10;;;;;;;20.58;56.36;99905.56;125979;1096;115188;-87
2021/08/19 06:56:09;;;;;;;0.40;0.00;;;;;;;20.66;55.69;99905.84;126042;1095;102899;-86
2021/08/19 06:58:36;;;;;;;0.40;0.08;;;;;;;20.67;55.82;99896.75;125979;1096;114439;-86
2021/08/19 07:01:05;;;;;;;0.40;0.00;;;;;;;20.75;55.69;99901.61;126124;1095;103005;-86
2021/08/19 07:03:33;;;;;;;0.40;0.00;;;;;;;20.85;56.06;99898.06;126156;1096;102887;-87
2021/08/19 07:06:01;;;;;;;0.40;0.10;;;;;;;20.99;55.22;99904.25;125938;1095;114457;-87
2021/08/19 07:08:28;;;;;;;0.40;0.10;;;;;;;21.11;54.93;99902.43;125934;1096;102885;-86
2021/08/19 07:10:55;;;;;;;0.40;0.00;;;;;;;21.14;54.26;99907.59;126057;1096;113482;-86
2021/08/19 07:13:23;;;;;;;0.40;0.00;;;;;;;21.11;53.29;99908.73;126157;1096;102927;-86
2021/08/19 07:15:50;;;;;;;0.40;0.00;;;;;;;21.09;53.08;99899.84;126180;1095;103351;-86
2021/08/19 07:18:17;;;;;;;0.40;0.00;;;;;;;21.18;53.68;99895.56;126146;1096;114311;-86
2021/08/19 07:20:44;;;;;;;0.40;0.00;;;;;;;21.32;53.80;99895.31;126176;1095;102969;-87
2021/08/19 07:23:12;;;;;;;0.40;0.00;;;;;;;21.38;53.32;99896.69;126013;1096;113419;-87
2021/08/19 07:25:41;;;;;;;0.40;0.00;;;;;;;21.45;53.35;99905.19;126097;1095;103062;-86
2021/08/19 07:28:11;;;;;;;0.40;0.00;;;;;;;21.49;52.62;99893.97;126087;1095;113925;-87
2021/08/19 07:30:38;;;;;;;0.40;0.00;;;;;;;21.58;53.87;99903.25;126137;1096;102940;-86
2021/08/19 07:33:06;;;;;;;0.40;0.00;;;;;;;21.72;51.84;99888.56;126141;1095;102343;-86
2021/08/19 07:35:34;;;;;;;0.40;0.10;;;;;;;21.72;51.86;99896.70;125985;1096;114977;-87
2021/08/19 07:38:01;;;;;;;0.40;0.00;;;;;;;21.76;51.94;99897.32;126207;1096;102890;-87
2021/08/19 07:40:31;;;;;;;0.40;0.00;;;;;;;21.83;52.98;99888.57;125996;1097;113801;-87
2021/08/19 07:42:58;;;;;;;0.40;0.10;;;;;;;21.90;52.65;99878.08;126117;1096;102981;-87
2021/08/19 07:45:26;;;;;;;0.40;0.00;;;;;;;21.92;51.17;99894.22;126115;1096;103016;-87
2021/08/19 07:47:54;;;;;;;0.40;0.00;;;;;;;21.88;50.98;99891.77;126009;1096;114672;-86
2021/08/19 07:50:21;;;;;;;0.40;0.00;;;;;;;21.93;51.93;99904.93;126120;1096;103167;-87
2021/08/19 07:52:52;;;;;;;0.40;0.05;;;;;;;21.91;52.08;99900.63;126036;1096;114365;-87
2021/08/19 07:55:20;;;;;;;0.40;0.00;;;;;;;21.98;50.81;99902.71;126185;1096;103126;-85
2021/08/19 07:57:50;;;;;;;0.40;0.00;;;;;;;21.94;50.55;99898.53;126155;1095;102938;-86
2021/08/19 08:00:25;;;;;;;0.40;0.00;;;;;;;22.03;51.64;99900.48;125997;1096;114504;-85
2021/08/19 08:02:54;;;;;;;0.40;0.00;;;;;;;22.09;51.35;99896.39;126164;1095;102965;-86
2021/08/19 08:05:23;;;;;;;0.40;0.00;;;;;;;22.21;51.02;99897.23;125981;1096;114254;-87
2021/08/19 08:07:52;;;;;;;0.40;0.00;;;;;;;22.32;51.29;99894.47;126197;1096;102908;-86
2021/08/19 08:10:20;;;;;;;0.40;0.03;;;;;;;22.46;51.03;99900.61;126019;1096;114541;-85
2021/08/19 08:12:47;;;;;;;0.40;0.00;;;;;;;22.61;50.43;99903.91;126121;1097;102892;-85
2021/08/19 08:15:19;;;;;;;0.40;0.00;;;;;;;22.65;50.21;99897.22;126087;1096;103065;-86
2021/08/19 08:17:46;;;;;;;0.40;0.00;;;;;;;22.74;50.37;99900.98;126031;1096;114392;-87
2021/08/19 08:20:17;;;;;;;0.40;0.00;;;;;;;22.80;49.76;99901.32;126164;1095;102144;-86
2021/08/19 08:22:46;;;;;;;0.40;0.00;;;;;;;22.83;50.16;99911.94;126010;1096;114422;-87
2021/08/19 08:25:17;;;;;;;0.40;0.00;;;;;;;22.91;50.22;99905.82;126123;1096;103167;-86
2021/08/19 08:28:05;;;;;;;0.40;0.00;;;;;;;23.10;50.47;99904.23;126184;1096;103060;-88
2021/08/19 08:30:36;;;;;;;0.40;0.00;;;;;;;23.14;49.88;99905.72;125938;1096;114055;-88
2021/08/19 08:33:21;;;;;;;0.40;0.00;;;;;;;23.28;49.51;99910.81;126082;1095;102955;-88
2021/08/19 08:35:51;;;;;;;0.40;0.00;;;;;;;23.40;49.50;99914.30;125980;1095;113192;-86
2021/08/19 08:38:20;;;;;;;0.40;0.00;;;;;;;23.48;48.14;99908.20;126157;1096;102941;-86
2021/08/19 08:40:50;;;;;;;0.40;0.00;;;;;;;23.54;48.62;99910.39;126005;1095;114086;-86
2021/08/19 08:43:20;;;;;;;0.40;0.00;;;;;;;23.50;47.74;99911.66;126069;1096;102997;-86
2021/08/19 08:45:49;;;;;;;0.40;0.00;;;;;;;23.54;48.40;99918.54;126114;1096;103133;-86
2021/08/19 08:48:24;;;;;;;0.40;0.00;;;;;;;23.57;48.99;99914.69;125990;1095;114317;-86
2021/08/19 08:50:53;;;;;;;0.40;0.00;;;;;;;23.56;48.44;99916.53;126112;1096;102890;-86
2021/08/19 08:53:21;;;;;;;0.40;0.00;;;;;;;23.57;49.66;99917.41;125923;1096;115330;-85
2021/08/19 08:55:49;;;;;;;0.40;0.00;;;;;;;23.42;48.23;99923.20;126148;1096;103351;-87
2021/08/19 08:58:17;;;;;;;0.40;0.00;;;;;;;23.31;48.86;99913.28;126136;1097;114541;-85
2021/08/19 09:00:46;;;;;;;0.40;0.00;;;;;;;23.26;48.04;99915.53;126119;1096;103037;-87
2021/08/19 09:03:16;;;;;;;0.40;0.00;;;;;;;23.20;48.74;99907.91;126087;1096;102881;-84
2021/08/19 09:05:49;;;;;;;0.40;0.00;;;;;;;23.25;49.41;99915.67;125952;1096;115029;-85
2021/08/19 09:08:20;;;;;;;0.40;0.00;;;;;;;23.19;49.73;99917.05;126199;1096;102892;-86
2021/08/19 09:10:49;;;;;;;0.40;0.00;;;;;;;23.12;49.77;99922.12;126006;1094;114807;-86
2021/08/19 09:13:19;;;;;;;0.40;0.00;;;;;;;23.06;50.90;99925.39;125957;1095;101827;-86
2021/08/19 09:15:47;;;;;;;0.40;0.00;;;;;;;22.92;50.36;99923.00;126187;1096;102884;-86
2021/08/19 09:18:34;;;;;;;0.40;0.00;;;;;;;22.83;51.30;99922.80;126059;1094;114369;-86
2021/08/19 09:21:01;;;;;;;0.40;0.00;;;;;;;22.80;50.77;99919.48;126052;1096;102941;-85
2021/08/19 09:23:29;;;;;;;0.40;0.00;;;;;;;22.71;51.54;99923.83;125912;1096;114363;-86
2021/08/19 09:25:59;;;;;;;0.40;0.00;;;;;;;22.78;50.89;99919.61;126019;1096;102926;-87
2021/08/19 09:28:31;;;;;;;0.40;0.00;;;;;;;23.32;50.58;99905.98;126060;1095;114502;-85
2021/08/19 09:31:07;;;;;;;0.40;0.00;;;;;;;23.90;48.42;99909.95;126066;1095;103021;-86
2021/08/19 09:33:37;;;;;;;0.40;0.00;;;;;;;23.72;48.39;99907.86;126031;1096;103137;-85
2021/08/19 09:36:06;;;;;;;0.40;0.00;;;;;;;23.91;48.56;99900.80;126021;1095;114383;-86
2021/08/19 09:38:42;;;;;;;0.40;0.00;;;;;;;24.30;47.80;99911.75;126221;1096;102918;-86
2021/08/19 09:41:13;;;;;;;0.40;0.10;;;;;;;24.99;46.14;99904.47;126054;1095;114209;-85
2021/08/19 09:43:46;;;;;;;0.40;0.00;;;;;;;25.83;43.67;99917.30;126143;1095;103061;-88
2021/08/19 09:46:15;;;;;;;0.40;0.00;;;;;;;25.95;43.45;99904.31;126028;1097;116031;-85
2021/08/19 09:48:44;;;;;;;0.40;0.00;;;;;;;26.61;41.94;99906.91;126182;1097;103028;-85
2021/08/19 09:51:24;;;;;;;0.40;0.07;;;;;;;27.32;39.78;99911.39;126146;1096;102786;-87
2021/08/19 09:53:54;;;;;;;0.40;0.00;;;;;;;26.85;40.29;99909.86;126003;1095;113365;-84
2021/08/19 09:56:33;;;;;;;0.40;0.00;;;;;;;26.27;41.96;99903.00;126046;1095;102836;-87
2021/08/19 09:59:20;;;;;;;0.40;0.00;;;;;;;25.62;42.37;99920.26;126140;1095;113370;-85
2021/08/19 10:01:51;;;;;;;0.40;0.00;;;;;;;25.18;43.61;99918.06;126083;1095;102904;-86
2021/08/19 10:04:20;;;;;;;0.40;0.00;;;;;;;24.86;44.83;99916.54;126061;1095;114701;-84
2021/08/19 10:06:48;;;;;;;0.40;0.00;;;;;;;24.82;45.42;99914.27;126202;1097;102898;-86
2021/08/19 10:09:15;;;;;;;0.40;0.00;;;;;;;25.02;44.87;99913.22;126012;1096;103286;-87
2021/08/19 10:11:48;;;;;;;0.40;0.00;;;;;;;25.00;45.21;99926.11;126053;1096;114272;-86
2021/08/19 10:14:17;;;;;;;0.40;0.00;;;;;;;25.94;44.94;99916.23;126245;1096;103524;-88
2021/08/19 10:16:46;;;;;;;0.40;0.00;;;;;;;26.93;41.75;99914.54;126151;1095;114495;-87
2021/08/19 10:19:29;;;;;;;0.40;0.00;;;;;;;28.15;38.68;99906.35;126203;1095;102902;-87
2021/08/19 10:22:07;;;;;;;0.40;0.00;;;;;;;28.42;38.48;99916.19;126052;1095;102990;-86
2021/08/19 10:24:37;;;;;;;0.40;0.00;;;;;;;27.76;38.98;99910.45;126104;1096;114088;-87
2021/08/19 10:27:25;;;;;;;0.40;0.00;;;;;;;27.02;40.10;99913.59;126222;1096;102949;-85
2021/08/19 10:30:09;;;;;;;0.40;0.00;;;;;;;26.56;41.32;99909.24;126013;1096;114268;-85
2021/08/19 10:32:39;;;;;;;0.40;0.00;;;;;;;27.12;40.52;99918.95;126225;1096;103017;-85
2021/08/19 10:35:10;;;;;;;0.40;0.00;;;;;;;26.75;40.62;99914.58;126026;1095;112904;-85
2021/08/19 10:37:46;;;;;;;0.40;0.00;;;;;;;26.25;40.77;99912.34;126151;1096;102213;-86
2021/08/19 10:40:23;;;;;;;0.40;0.00;;;;;;;25.89;42.64;99917.70;125968;1095;114404;-85
2021/08/19 10:42:56;;;;;;;0.40;0.00;;;;;;;25.67;43.26;99928.86;126045;1096;102812;-84
2021/08/19 10:45:29;;;;;;;0.40;0.00;;;;;;;25.33;43.50;99923.90;126033;1096;103135;-85
2021/08/19 10:48:02;;;;;;;0.40;0.00;;;;;;;25.02;44.30;99917.82;126013;1096;113427;-84
2021/08/19 10:50:41;;;;;;;0.40;0.00;;;;;;;24.88;45.10;99916.39;126174;1096;103056;-87
2021/08/19 10:53:16;;;;;;;0.40;0.00;;;;;;;25.17;45.02;99918.22;126028;1096;114359;-85
2021/08/19 10:55:52;;;;;;;0.40;0.00;;;;;;;25.07;44.28;99917.37;126187;1095;102986;-85
2021/08/19 10:58:33;;;;;;;0.40;0.00;;;;;;;24.95;44.92;99922.11;125959;1095;114785;-85
2021/08/19 11:01:02;;;;;;;0.40;0.00;;;;;;;24.94;44.50;99913.09;126511;1096;103390;-87
2021/08/19 11:03:38;;;;;;;0.40;0.00;;;;;;;25.05;45.12;99914.80;126133;1097;102289;-86
2021/08/19 11:06:14;;;;;;;0.40;0.00;;;;;;;25.11;45.11;99921.52;126027;1095;114242;-87
2021/08/19 11:08:57;;;;;;;0.40;0.00;;;;;;;25.15;44.68;99915.64;126114;1096;102890;-86
2021/08/19 11:11:30;;;;;;;0.40;0.00;;;;;;;25.15;45.10;99921.09;126134;1096;114290;-86
2021/08/19 11:14:02;;;;;;;0.40;0.00;;;;;;;24.93;44.04;99927.72;126186;1096;102969;-86
2021/08/19 11:16:29;;;;;;;0.40;0.00;;;;;;;24.50;44.69;99923.55;126129;1096;113690;-85
2021/08/19 11:19:15;;;;;;;0.40;0.00;;;;;;;24.16;45.80;99922.04;126057;1096;102978;-85
2021/08/19 11:21:50;;;;;;;0.40;0.00;;;;;;;23.84;46.53;99928.51;126154;1096;103387;-85
2021/08/19 11:24:19;;;;;;;0.40;0.00;;;;;;;23.69;47.42;99928.03;126151;1096;114172;-86
2021/08/19 11:27:06;;;;;;;0.40;0.00;;;;;;;23.59;48.17;99935.30;126127;1096;103019;-85